sensor_id;sensor_type;location;lat;lon;timestamp;temperature;humidity
42031;DHT22;27709;52.036;5.906;2022-11-20T00:00:09;-2.20;99.90
42031;DHT22;27709;52.036;5.906;2022-11-20T00:02:35;-2.20;99.90
42031;DHT22;27709;52.036;5.906;2022-11-20T00:05:00;-2.20;99.90
42031;DHT22;27709;52.036;5.906;2022-11-20T00:07:26;-2.10;99.90
42031;DHT22;27709;52.036;5.906;2022-11-20T00:09:51;-2.20;99.90
42031;DHT22;27709;52.036;5.906;2022-11-20T00:12:17;-2.20;99.90
42031;DHT22;27709;52.036;5.906;2022-11-20T00:14:42;-2.20;99.90
42031;DHT22;27709;52.036;5.906;2022-11-20T00:17:08;-2.20;99.90
42031;DHT22;27709;52.036;5.906;2022-11-20T00:19:33;-2.20;99.90
42031;DHT22;27709;52.036;5.906;2022-11-20T00:21:59;-2.20;99.90
42031;DHT22;27709;52.036;5.906;2022-11-20T00:24:24;-2.20;99.90
42031;DHT22;27709;52.036;5.906;2022-11-20T00:26:50;-2.20;99.90
42031;DHT22;27709;52.036;5.906;2022-11-20T00:29:15;-2.20;99.90
42031;DHT22;27709;52.036;5.906;2022-11-20T00:31:41;-2.20;99.90
42031;DHT22;27709;52.036;5.906;2022-11-20T00:34:06;-2.20;99.90
42031;DHT22;27709;52.036;5.906;2022-11-20T00:36:33;-2.20;99.90
42031;DHT22;27709;52.036;5.906;2022-11-20T00:39:00;-2.20;99.90
42031;DHT22;27709;52.036;5.906;2022-11-20T00:41:27;-2.30;99.90
42031;DHT22;27709;52.036;5.906;2022-11-20T00:43:54;-2.30;99.90
42031;DHT22;27709;52.036;5.906;2022-11-20T00:46:22;-2.30;99.90
42031;DHT22;27709;52.036;5.906;2022-11-20T00:48:48;-2.30;99.90
42031;DHT22;27709;52.036;5.906;2022-11-20T00:51:16;-2.30;99.90
42031;DHT22;27709;52.036;5.906;2022-11-20T00:53:42;-2.30;99.90
42031;DHT22;27709;52.036;5.906;2022-11-20T00:56:11;-2.30;99.90
42031;DHT22;27709;52.036;5.906;2022-11-20T00:58:38;-2.30;99.90
42031;DHT22;27709;52.036;5.906;2022-11-20T01:01:12;-2.40;99.90
42031;DHT22;27709;52.036;5.906;2022-11-20T01:03:40;-2.50;99.90
42031;DHT22;27709;52.036;5.906;2022-11-20T01:06:11;-2.50;99.90
42031;DHT22;27709;52.036;5.906;2022-11-20T01:08:38;-2.60;99.90
42031;DHT22;27709;52.036;5.906;2022-11-20T01:11:06;-2.60;99.90
42031;DHT22;27709;52.036;5.906;2022-11-20T01:13:32;-2.70;99.90
42031;DHT22;27709;52.036;5.906;2022-11-20T01:16:08;-2.70;99.90
42031;DHT22;27709;52.036;5.906;2022-11-20T01:18:34;-2.70;99.90
42031;DHT22;27709;52.036;5.906;2022-11-20T01:21:08;-2.80;99.90
42031;DHT22;27709;52.036;5.906;2022-11-20T01:23:35;-2.80;99.90
42031;DHT22;27709;52.036;5.906;2022-11-20T01:26:03;-2.80;99.90
42031;DHT22;27709;52.036;5.906;2022-11-20T01:28:29;-2.80;99.90
42031;DHT22;27709;52.036;5.906;2022-11-20T01:30:55;-2.80;99.90
42031;DHT22;27709;52.036;5.906;2022-11-20T01:33:21;-2.90;99.90
42031;DHT22;27709;52.036;5.906;2022-11-20T01:35:46;-3.00;99.90
42031;DHT22;27709;52.036;5.906;2022-11-20T01:38:12;-3.10;99.90
42031;DHT22;27709;52.036;5.906;2022-11-20T01:40:37;-3.20;99.90
42031;DHT22;27709;52.036;5.906;2022-11-20T01:43:32;-3.20;99.90
42031;DHT22;27709;52.036;5.906;2022-11-20T01:46:03;-3.20;99.90
42031;DHT22;27709;52.036;5.906;2022-11-20T01:48:39;-3.20;99.90
42031;DHT22;27709;52.036;5.906;2022-11-20T01:51:15;-3.30;99.90
42031;DHT22;27709;52.036;5.906;2022-11-20T01:53:43;-3.30;99.90
42031;DHT22;27709;52.036;5.906;2022-11-20T01:56:10;-3.30;99.90
42031;DHT22;27709;52.036;5.906;2022-11-20T01:58:39;-3.30;99.90
42031;DHT22;27709;52.036;5.906;2022-11-20T02:01:08;-3.20;99.90
42031;DHT22;27709;52.036;5.906;2022-11-20T02:03:34;-3.20;99.90
42031;DHT22;27709;52.036;5.906;2022-11-20T02:06:21;-3.30;99.90
42031;DHT22;27709;52.036;5.906;2022-11-20T02:08:48;-3.30;99.90
42031;DHT22;27709;52.036;5.906;2022-11-20T02:11:13;-3.30;99.90
42031;DHT22;27709;52.036;5.906;2022-11-20T02:13:39;-3.20;99.90
42031;DHT22;27709;52.036;5.906;2022-11-20T02:18:51;-3.10;99.90
42031;DHT22;27709;52.036;5.906;2022-11-20T02:21:24;-3.10;99.90
42031;DHT22;27709;52.036;5.906;2022-11-20T02:24:07;-3.10;99.90
42031;DHT22;27709;52.036;5.906;2022-11-20T02:26:42;-3.20;99.90
42031;DHT22;27709;52.036;5.906;2022-11-20T02:29:09;-3.20;99.90
42031;DHT22;27709;52.036;5.906;2022-11-20T02:31:40;-3.20;99.90
42031;DHT22;27709;52.036;5.906;2022-11-20T02:34:06;-3.10;99.90
42031;DHT22;27709;52.036;5.906;2022-11-20T02:36:33;-3.10;99.90
42031;DHT22;27709;52.036;5.906;2022-11-20T02:39:00;-3.00;99.90
42031;DHT22;27709;52.036;5.906;2022-11-20T02:41:34;-3.10;99.90
42031;DHT22;27709;52.036;5.906;2022-11-20T02:43:59;-3.10;99.90
42031;DHT22;27709;52.036;5.906;2022-11-20T02:46:26;-3.10;99.90
42031;DHT22;27709;52.036;5.906;2022-11-20T02:48:52;-3.20;99.90
42031;DHT22;27709;52.036;5.906;2022-11-20T02:51:17;-3.20;99.90
42031;DHT22;27709;52.036;5.906;2022-11-20T02:53:43;-3.20;99.90
42031;DHT22;27709;52.036;5.906;2022-11-20T02:56:08;-3.20;99.90
42031;DHT22;27709;52.036;5.906;2022-11-20T02:58:34;-3.30;99.90
42031;DHT22;27709;52.036;5.906;2022-11-20T03:01:00;-3.30;99.90
42031;DHT22;27709;52.036;5.906;2022-11-20T03:03:25;-3.20;99.90
42031;DHT22;27709;52.036;5.906;2022-11-20T03:05:51;-3.20;99.90
42031;DHT22;27709;52.036;5.906;2022-11-20T03:08:16;-3.30;99.90
42031;DHT22;27709;52.036;5.906;2022-11-20T03:10:42;-3.30;99.90
42031;DHT22;27709;52.036;5.906;2022-11-20T03:13:07;-3.30;99.90
42031;DHT22;27709;52.036;5.906;2022-11-20T03:15:33;-3.30;99.90
42031;DHT22;27709;52.036;5.906;2022-11-20T03:17:58;-3.30;99.90
42031;DHT22;27709;52.036;5.906;2022-11-20T03:20:24;-3.50;99.90
42031;DHT22;27709;52.036;5.906;2022-11-20T03:22:49;-3.60;99.90
42031;DHT22;27709;52.036;5.906;2022-11-20T03:25:15;-3.50;99.90
42031;DHT22;27709;52.036;5.906;2022-11-20T03:27:40;-3.50;99.90
42031;DHT22;27709;52.036;5.906;2022-11-20T03:30:06;-3.50;99.90
42031;DHT22;27709;52.036;5.906;2022-11-20T03:32:32;-3.40;99.90
42031;DHT22;27709;52.036;5.906;2022-11-20T03:34:58;-3.40;99.90
42031;DHT22;27709;52.036;5.906;2022-11-20T03:37:23;-3.40;99.90
42031;DHT22;27709;52.036;5.906;2022-11-20T03:39:49;-3.40;99.90
42031;DHT22;27709;52.036;5.906;2022-11-20T03:42:14;-3.50;99.90
42031;DHT22;27709;52.036;5.906;2022-11-20T03:44:58;-3.50;99.90
42031;DHT22;27709;52.036;5.906;2022-11-20T03:47:23;-3.60;99.90
42031;DHT22;27709;52.036;5.906;2022-11-20T03:49:49;-3.60;99.90
42031;DHT22;27709;52.036;5.906;2022-11-20T03:52:15;-3.60;99.90
42031;DHT22;27709;52.036;5.906;2022-11-20T03:54:40;-3.60;99.90
42031;DHT22;27709;52.036;5.906;2022-11-20T03:57:06;-3.70;99.90
42031;DHT22;27709;52.036;5.906;2022-11-20T03:59:31;-3.70;99.90
42031;DHT22;27709;52.036;5.906;2022-11-20T04:01:56;-3.70;99.90
42031;DHT22;27709;52.036;5.906;2022-11-20T04:04:22;-3.70;99.90
42031;DHT22;27709;52.036;5.906;2022-11-20T04:06:48;-3.70;99.90
42031;DHT22;27709;52.036;5.906;2022-11-20T04:09:13;-3.70;99.90
42031;DHT22;27709;52.036;5.906;2022-11-20T04:11:40;-3.70;99.90
42031;DHT22;27709;52.036;5.906;2022-11-20T04:14:06;-3.70;99.90
42031;DHT22;27709;52.036;5.906;2022-11-20T04:16:37;-3.80;99.90
42031;DHT22;27709;52.036;5.906;2022-11-20T04:19:04;-3.80;99.90
42031;DHT22;27709;52.036;5.906;2022-11-20T04:21:30;-3.70;99.90
42031;DHT22;27709;52.036;5.906;2022-11-20T04:23:56;-3.70;99.90
42031;DHT22;27709;52.036;5.906;2022-11-20T04:26:26;-3.70;99.90
42031;DHT22;27709;52.036;5.906;2022-11-20T04:28:52;-3.80;99.90
42031;DHT22;27709;52.036;5.906;2022-11-20T04:31:21;-3.80;99.90
42031;DHT22;27709;52.036;5.906;2022-11-20T04:33:47;-3.80;99.90
42031;DHT22;27709;52.036;5.906;2022-11-20T04:38:40;-3.70;99.90
42031;DHT22;27709;52.036;5.906;2022-11-20T04:41:07;-3.70;99.90
42031;DHT22;27709;52.036;5.906;2022-11-20T04:43:33;-3.70;99.90
42031;DHT22;27709;52.036;5.906;2022-11-20T04:46:00;-3.70;99.90
42031;DHT22;27709;52.036;5.906;2022-11-20T04:48:27;-3.70;99.90
42031;DHT22;27709;52.036;5.906;2022-11-20T04:50:53;-3.80;99.90
42031;DHT22;27709;52.036;5.906;2022-11-20T04:53:19;-3.80;99.90
42031;DHT22;27709;52.036;5.906;2022-11-20T04:55:45;-3.90;99.90
42031;DHT22;27709;52.036;5.906;2022-11-20T04:58:11;-3.90;99.90
42031;DHT22;27709;52.036;5.906;2022-11-20T05:00:36;-4.00;99.90
42031;DHT22;27709;52.036;5.906;2022-11-20T05:03:02;-4.00;99.90
42031;DHT22;27709;52.036;5.906;2022-11-20T05:05:28;-3.90;99.90
42031;DHT22;27709;52.036;5.906;2022-11-20T05:07:56;-3.80;99.90
42031;DHT22;27709;52.036;5.906;2022-11-20T05:10:23;-3.90;99.90
42031;DHT22;27709;52.036;5.906;2022-11-20T05:12:48;-3.80;99.90
42031;DHT22;27709;52.036;5.906;2022-11-20T05:15:14;-3.80;99.90
42031;DHT22;27709;52.036;5.906;2022-11-20T05:17:39;-3.90;99.90
42031;DHT22;27709;52.036;5.906;2022-11-20T05:20:05;-3.90;99.90
42031;DHT22;27709;52.036;5.906;2022-11-20T05:22:31;-4.00;99.90
42031;DHT22;27709;52.036;5.906;2022-11-20T05:24:57;-4.20;99.90
42031;DHT22;27709;52.036;5.906;2022-11-20T05:27:22;-4.40;99.90
42031;DHT22;27709;52.036;5.906;2022-11-20T05:29:48;-4.40;99.90
42031;DHT22;27709;52.036;5.906;2022-11-20T05:32:13;-4.50;99.90
42031;DHT22;27709;52.036;5.906;2022-11-20T05:34:39;-4.50;99.90
42031;DHT22;27709;52.036;5.906;2022-11-20T05:37:04;-4.50;99.90
42031;DHT22;27709;52.036;5.906;2022-11-20T05:39:30;-4.50;99.90
42031;DHT22;27709;52.036;5.906;2022-11-20T05:41:55;-4.40;99.90
42031;DHT22;27709;52.036;5.906;2022-11-20T05:44:39;-4.40;99.90
42031;DHT22;27709;52.036;5.906;2022-11-20T05:47:05;-4.40;99.90
42031;DHT22;27709;52.036;5.906;2022-11-20T05:49:31;-4.40;99.90
42031;DHT22;27709;52.036;5.906;2022-11-20T05:51:57;-4.40;99.90
42031;DHT22;27709;52.036;5.906;2022-11-20T05:54:22;-4.50;99.90
42031;DHT22;27709;52.036;5.906;2022-11-20T05:56:48;-4.60;99.90
42031;DHT22;27709;52.036;5.906;2022-11-20T05:59:13;-4.60;99.90
42031;DHT22;27709;52.036;5.906;2022-11-20T06:01:39;-4.60;99.90
42031;DHT22;27709;52.036;5.906;2022-11-20T06:04:04;-4.50;99.90
42031;DHT22;27709;52.036;5.906;2022-11-20T06:06:30;-4.50;99.90
42031;DHT22;27709;52.036;5.906;2022-11-20T06:08:55;-4.40;99.90
42031;DHT22;27709;52.036;5.906;2022-11-20T06:11:21;-4.40;99.90
42031;DHT22;27709;52.036;5.906;2022-11-20T06:13:47;-4.50;99.90
42031;DHT22;27709;52.036;5.906;2022-11-20T06:16:16;-4.50;99.90
42031;DHT22;27709;52.036;5.906;2022-11-20T06:18:42;-4.50;99.90
42031;DHT22;27709;52.036;5.906;2022-11-20T06:21:13;-4.40;99.90
42031;DHT22;27709;52.036;5.906;2022-11-20T06:23:39;-4.30;99.90
42031;DHT22;27709;52.036;5.906;2022-11-20T06:26:10;-4.30;99.90
42031;DHT22;27709;52.036;5.906;2022-11-20T06:28:36;-4.20;99.90
42031;DHT22;27709;52.036;5.906;2022-11-20T06:31:03;-4.20;99.90
42031;DHT22;27709;52.036;5.906;2022-11-20T06:33:29;-4.20;99.90
42031;DHT22;27709;52.036;5.906;2022-11-20T06:35:59;-4.30;99.90
42031;DHT22;27709;52.036;5.906;2022-11-20T06:38:26;-4.40;99.90
42031;DHT22;27709;52.036;5.906;2022-11-20T06:40:52;-4.50;99.90
42031;DHT22;27709;52.036;5.906;2022-11-20T06:43:17;-4.50;99.90
42031;DHT22;27709;52.036;5.906;2022-11-20T06:45:43;-4.40;99.90
42031;DHT22;27709;52.036;5.906;2022-11-20T06:48:09;-4.40;99.90
42031;DHT22;27709;52.036;5.906;2022-11-20T06:50:36;-4.40;99.90
42031;DHT22;27709;52.036;5.906;2022-11-20T06:53:03;-4.30;99.90
42031;DHT22;27709;52.036;5.906;2022-11-20T06:55:29;-4.20;99.90
42031;DHT22;27709;52.036;5.906;2022-11-20T06:57:55;-4.20;99.90
42031;DHT22;27709;52.036;5.906;2022-11-20T07:00:21;-4.40;99.90
42031;DHT22;27709;52.036;5.906;2022-11-20T07:02:46;-4.50;99.90
42031;DHT22;27709;52.036;5.906;2022-11-20T07:05:12;-4.50;99.90
42031;DHT22;27709;52.036;5.906;2022-11-20T07:07:37;-4.60;99.90
42031;DHT22;27709;52.036;5.906;2022-11-20T07:10:03;-4.70;99.90
42031;DHT22;27709;52.036;5.906;2022-11-20T07:12:29;-4.80;99.90
42031;DHT22;27709;52.036;5.906;2022-11-20T07:14:54;-4.70;99.90
42031;DHT22;27709;52.036;5.906;2022-11-20T07:17:20;-4.70;99.90
42031;DHT22;27709;52.036;5.906;2022-11-20T07:19:46;-4.60;99.90
42031;DHT22;27709;52.036;5.906;2022-11-20T07:22:11;-4.60;99.90
42031;DHT22;27709;52.036;5.906;2022-11-20T07:24:37;-4.60;99.90
42031;DHT22;27709;52.036;5.906;2022-11-20T07:27:02;-4.60;99.90
42031;DHT22;27709;52.036;5.906;2022-11-20T07:29:29;-4.50;99.90
42031;DHT22;27709;52.036;5.906;2022-11-20T07:31:54;-4.40;99.90
42031;DHT22;27709;52.036;5.906;2022-11-20T07:34:21;-4.40;99.90
42031;DHT22;27709;52.036;5.906;2022-11-20T07:36:47;-4.40;99.90
42031;DHT22;27709;52.036;5.906;2022-11-20T07:39:12;-4.40;99.90
42031;DHT22;27709;52.036;5.906;2022-11-20T07:41:38;-4.40;99.90
42031;DHT22;27709;52.036;5.906;2022-11-20T07:44:03;-4.40;99.90
42031;DHT22;27709;52.036;5.906;2022-11-20T07:46:29;-4.20;99.90
42031;DHT22;27709;52.036;5.906;2022-11-20T07:48:54;-4.20;99.90
42031;DHT22;27709;52.036;5.906;2022-11-20T07:51:20;-4.20;99.90
42031;DHT22;27709;52.036;5.906;2022-11-20T07:53:45;-4.20;99.90
42031;DHT22;27709;52.036;5.906;2022-11-20T07:56:11;-4.10;99.90
42031;DHT22;27709;52.036;5.906;2022-11-20T07:58:36;-4.10;99.90
42031;DHT22;27709;52.036;5.906;2022-11-20T08:01:06;-4.00;99.90
42031;DHT22;27709;52.036;5.906;2022-11-20T08:03:31;-3.90;99.90
42031;DHT22;27709;52.036;5.906;2022-11-20T08:06:01;-3.80;99.90
42031;DHT22;27709;52.036;5.906;2022-11-20T08:08:27;-3.60;99.90
42031;DHT22;27709;52.036;5.906;2022-11-20T08:10:53;-3.50;99.90
42031;DHT22;27709;52.036;5.906;2022-11-20T08:13:38;-3.40;99.90
42031;DHT22;27709;52.036;5.906;2022-11-20T08:16:22;-3.20;99.90
42031;DHT22;27709;52.036;5.906;2022-11-20T08:18:48;-3.00;99.90
42031;DHT22;27709;52.036;5.906;2022-11-20T08:21:13;-2.90;99.90
42031;DHT22;27709;52.036;5.906;2022-11-20T08:23:39;-2.80;99.90
42031;DHT22;27709;52.036;5.906;2022-11-20T08:26:04;-2.60;99.90
42031;DHT22;27709;52.036;5.906;2022-11-20T08:28:30;-2.50;99.90
42031;DHT22;27709;52.036;5.906;2022-11-20T08:31:00;-2.50;99.90
42031;DHT22;27709;52.036;5.906;2022-11-20T08:33:26;-2.40;99.90
42031;DHT22;27709;52.036;5.906;2022-11-20T08:35:51;-2.30;99.90
42031;DHT22;27709;52.036;5.906;2022-11-20T08:38:17;-2.20;99.90
42031;DHT22;27709;52.036;5.906;2022-11-20T08:40:42;-2.00;99.90
42031;DHT22;27709;52.036;5.906;2022-11-20T08:43:28;-1.90;99.90
42031;DHT22;27709;52.036;5.906;2022-11-20T08:45:56;-1.70;99.90
42031;DHT22;27709;52.036;5.906;2022-11-20T08:48:22;-1.50;99.90
42031;DHT22;27709;52.036;5.906;2022-11-20T08:50:47;-1.40;99.90
42031;DHT22;27709;52.036;5.906;2022-11-20T08:53:12;-1.30;99.90
42031;DHT22;27709;52.036;5.906;2022-11-20T08:55:38;-1.20;99.90
42031;DHT22;27709;52.036;5.906;2022-11-20T08:58:08;-1.10;99.90
42031;DHT22;27709;52.036;5.906;2022-11-20T09:00:34;-1.10;99.90
42031;DHT22;27709;52.036;5.906;2022-11-20T09:03:00;-0.90;99.90
42031;DHT22;27709;52.036;5.906;2022-11-20T09:05:26;-0.80;99.90
42031;DHT22;27709;52.036;5.906;2022-11-20T09:07:56;-0.70;99.90
42031;DHT22;27709;52.036;5.906;2022-11-20T09:10:22;-0.60;99.90
42031;DHT22;27709;52.036;5.906;2022-11-20T09:12:53;-0.50;99.90
42031;DHT22;27709;52.036;5.906;2022-11-20T09:15:20;-0.30;99.90
42031;DHT22;27709;52.036;5.906;2022-11-20T09:18:00;-0.20;99.90
42031;DHT22;27709;52.036;5.906;2022-11-20T09:20:28;-0.10;99.90
42031;DHT22;27709;52.036;5.906;2022-11-20T09:22:54;0.00;99.90
42031;DHT22;27709;52.036;5.906;2022-11-20T09:25:20;0.10;99.90
42031;DHT22;27709;52.036;5.906;2022-11-20T09:27:46;0.20;99.90
42031;DHT22;27709;52.036;5.906;2022-11-20T09:30:16;0.30;99.90
42031;DHT22;27709;52.036;5.906;2022-11-20T09:32:44;0.30;99.90
42031;DHT22;27709;52.036;5.906;2022-11-20T09:35:11;0.40;99.90
42031;DHT22;27709;52.036;5.906;2022-11-20T09:37:37;0.40;99.90
42031;DHT22;27709;52.036;5.906;2022-11-20T09:40:03;0.40;99.90
42031;DHT22;27709;52.036;5.906;2022-11-20T09:42:45;0.50;99.90
42031;DHT22;27709;52.036;5.906;2022-11-20T09:48:18;0.50;99.90
42031;DHT22;27709;52.036;5.906;2022-11-20T09:50:58;0.60;99.90
42031;DHT22;27709;52.036;5.906;2022-11-20T09:56:17;0.70;99.90
42031;DHT22;27709;52.036;5.906;2022-11-20T09:58:50;0.70;99.90
42031;DHT22;27709;52.036;5.906;2022-11-20T10:01:23;0.70;99.90
42031;DHT22;27709;52.036;5.906;2022-11-20T10:04:01;0.80;99.90
42031;DHT22;27709;52.036;5.906;2022-11-20T10:06:56;0.80;99.90
42031;DHT22;27709;52.036;5.906;2022-11-20T10:09:31;0.80;99.90
42031;DHT22;27709;52.036;5.906;2022-11-20T10:28:29;1.30;99.90
42031;DHT22;27709;52.036;5.906;2022-11-20T10:31:13;1.40;99.90
42031;DHT22;27709;52.036;5.906;2022-11-20T10:33:42;1.60;99.90
42031;DHT22;27709;52.036;5.906;2022-11-20T10:36:21;1.70;99.90
42031;DHT22;27709;52.036;5.906;2022-11-20T10:39:01;1.80;99.90
42031;DHT22;27709;52.036;5.906;2022-11-20T10:41:41;2.00;99.90
42031;DHT22;27709;52.036;5.906;2022-11-20T10:44:21;2.00;99.90
42031;DHT22;27709;52.036;5.906;2022-11-20T10:47:21;2.20;99.90
42031;DHT22;27709;52.036;5.906;2022-11-20T10:49:53;2.30;99.90
42031;DHT22;27709;52.036;5.906;2022-11-20T11:00:25;2.60;99.90
42031;DHT22;27709;52.036;5.906;2022-11-20T11:02:52;2.70;99.90
42031;DHT22;27709;52.036;5.906;2022-11-20T11:05:44;2.80;99.90
42031;DHT22;27709;52.036;5.906;2022-11-20T11:08:15;2.80;99.90
42031;DHT22;27709;52.036;5.906;2022-11-20T11:10:51;2.70;99.90
42031;DHT22;27709;52.036;5.906;2022-11-20T11:13:20;2.70;99.90
42031;DHT22;27709;52.036;5.906;2022-11-20T11:15:46;2.70;99.90
42031;DHT22;27709;52.036;5.906;2022-11-20T11:18:28;2.70;99.90
42031;DHT22;27709;52.036;5.906;2022-11-20T11:20:56;2.60;99.90
42031;DHT22;27709;52.036;5.906;2022-11-20T11:23:35;2.60;99.90
42031;DHT22;27709;52.036;5.906;2022-11-20T11:26:03;2.60;99.90
42031;DHT22;27709;52.036;5.906;2022-11-20T11:28:29;2.60;99.90
42031;DHT22;27709;52.036;5.906;2022-11-20T11:30:55;2.60;99.90
42031;DHT22;27709;52.036;5.906;2022-11-20T11:33:23;2.60;99.90
42031;DHT22;27709;52.036;5.906;2022-11-20T11:35:55;2.60;99.90
42031;DHT22;27709;52.036;5.906;2022-11-20T11:38:39;2.70;99.90
42031;DHT22;27709;52.036;5.906;2022-11-20T11:41:07;2.70;99.90
42031;DHT22;27709;52.036;5.906;2022-11-20T11:43:36;2.70;99.90
42031;DHT22;27709;52.036;5.906;2022-11-20T11:51:47;2.80;99.90
42031;DHT22;27709;52.036;5.906;2022-11-20T11:54:23;2.90;99.90
42031;DHT22;27709;52.036;5.906;2022-11-20T11:56:48;2.80;99.90
42031;DHT22;27709;52.036;5.906;2022-11-20T12:02:15;2.90;99.90
42031;DHT22;27709;52.036;5.906;2022-11-20T12:04:48;2.90;99.90
42031;DHT22;27709;52.036;5.906;2022-11-20T12:09:56;2.90;99.90
42031;DHT22;27709;52.036;5.906;2022-11-20T12:12:29;3.00;99.90
42031;DHT22;27709;52.036;5.906;2022-11-20T12:14:56;3.00;99.90
42031;DHT22;27709;52.036;5.906;2022-11-20T12:17:23;2.90;99.90
42031;DHT22;27709;52.036;5.906;2022-11-20T12:19:49;3.00;99.90
42031;DHT22;27709;52.036;5.906;2022-11-20T12:30:32;2.90;99.90
42031;DHT22;27709;52.036;5.906;2022-11-20T12:41:15;2.80;99.90
42031;DHT22;27709;52.036;5.906;2022-11-20T12:50:02;2.70;99.90
42031;DHT22;27709;52.036;5.906;2022-11-20T12:55:21;2.80;99.90
42031;DHT22;27709;52.036;5.906;2022-11-20T13:00:33;2.90;99.90
42031;DHT22;27709;52.036;5.906;2022-11-20T13:06:14;2.90;99.90
42031;DHT22;27709;52.036;5.906;2022-11-20T13:08:42;2.90;99.90
42031;DHT22;27709;52.036;5.906;2022-11-20T13:11:27;3.00;99.90
42031;DHT22;27709;52.036;5.906;2022-11-20T13:16:54;2.90;99.90
42031;DHT22;27709;52.036;5.906;2022-11-20T13:19:22;3.00;99.90
42031;DHT22;27709;52.036;5.906;2022-11-20T13:21:49;3.00;99.90
42031;DHT22;27709;52.036;5.906;2022-11-20T13:26:44;2.90;99.90
42031;DHT22;27709;52.036;5.906;2022-11-20T13:29:16;2.80;99.90
42031;DHT22;27709;52.036;5.906;2022-11-20T13:31:46;2.80;99.90
42031;DHT22;27709;52.036;5.906;2022-11-20T13:34:26;2.70;99.90
42031;DHT22;27709;52.036;5.906;2022-11-20T13:36:57;2.70;99.90
42031;DHT22;27709;52.036;5.906;2022-11-20T13:39:29;2.60;99.90
42031;DHT22;27709;52.036;5.906;2022-11-20T13:41:57;2.60;99.90
42031;DHT22;27709;52.036;5.906;2022-11-20T13:44:48;2.60;99.90
42031;DHT22;27709;52.036;5.906;2022-11-20T13:47:29;2.60;99.90
42031;DHT22;27709;52.036;5.906;2022-11-20T13:50:04;2.60;99.90
42031;DHT22;27709;52.036;5.906;2022-11-20T14:03:38;2.80;99.90
42031;DHT22;27709;52.036;5.906;2022-11-20T14:06:10;2.80;99.90
42031;DHT22;27709;52.036;5.906;2022-11-20T14:08:46;2.80;99.90
42031;DHT22;27709;52.036;5.906;2022-11-20T14:11:23;2.90;99.90
42031;DHT22;27709;52.036;5.906;2022-11-20T14:13:59;2.80;99.90
42031;DHT22;27709;52.036;5.906;2022-11-20T14:16:27;2.80;99.90
42031;DHT22;27709;52.036;5.906;2022-11-20T14:18:54;2.80;99.90
42031;DHT22;27709;52.036;5.906;2022-11-20T14:21:28;2.80;99.90
42031;DHT22;27709;52.036;5.906;2022-11-20T14:24:06;2.80;99.90
42031;DHT22;27709;52.036;5.906;2022-11-20T14:26:43;2.80;99.90
42031;DHT22;27709;52.036;5.906;2022-11-20T14:29:14;2.80;99.90
42031;DHT22;27709;52.036;5.906;2022-11-20T14:31:44;2.80;99.90
42031;DHT22;27709;52.036;5.906;2022-11-20T14:34:17;2.70;99.90
42031;DHT22;27709;52.036;5.906;2022-11-20T14:36:43;2.80;99.90
42031;DHT22;27709;52.036;5.906;2022-11-20T14:39:12;2.70;99.90
42031;DHT22;27709;52.036;5.906;2022-11-20T14:41:57;2.70;99.90
42031;DHT22;27709;52.036;5.906;2022-11-20T14:44:29;2.70;99.90
42031;DHT22;27709;52.036;5.906;2022-11-20T14:46:59;2.70;99.90
42031;DHT22;27709;52.036;5.906;2022-11-20T14:49:26;2.70;99.90
42031;DHT22;27709;52.036;5.906;2022-11-20T14:52:00;2.80;99.90
42031;DHT22;27709;52.036;5.906;2022-11-20T14:54:26;2.80;99.90
42031;DHT22;27709;52.036;5.906;2022-11-20T14:57:01;2.80;99.90
42031;DHT22;27709;52.036;5.906;2022-11-20T14:59:32;2.70;99.90
42031;DHT22;27709;52.036;5.906;2022-11-20T15:02:04;2.70;99.90
42031;DHT22;27709;52.036;5.906;2022-11-20T15:04:30;2.70;99.90
42031;DHT22;27709;52.036;5.906;2022-11-20T15:06:58;2.60;99.90
42031;DHT22;27709;52.036;5.906;2022-11-20T15:09:24;2.60;99.90
42031;DHT22;27709;52.036;5.906;2022-11-20T15:12:01;2.60;99.90
42031;DHT22;27709;52.036;5.906;2022-11-20T15:14:28;2.60;99.90
42031;DHT22;27709;52.036;5.906;2022-11-20T15:16:55;2.60;99.90
42031;DHT22;27709;52.036;5.906;2022-11-20T15:19:25;2.70;99.90
42031;DHT22;27709;52.036;5.906;2022-11-20T15:21:51;2.70;99.90
42031;DHT22;27709;52.036;5.906;2022-11-20T15:24:17;2.70;99.90
42031;DHT22;27709;52.036;5.906;2022-11-20T15:26:43;2.70;99.90
42031;DHT22;27709;52.036;5.906;2022-11-20T15:29:14;2.70;99.90
42031;DHT22;27709;52.036;5.906;2022-11-20T15:31:44;2.80;99.90
42031;DHT22;27709;52.036;5.906;2022-11-20T15:34:15;2.80;99.90
42031;DHT22;27709;52.036;5.906;2022-11-20T15:36:41;2.80;99.90
42031;DHT22;27709;52.036;5.906;2022-11-20T15:39:07;2.80;99.90
42031;DHT22;27709;52.036;5.906;2022-11-20T15:41:36;2.80;99.90
42031;DHT22;27709;52.036;5.906;2022-11-20T15:44:03;2.90;99.90
42031;DHT22;27709;52.036;5.906;2022-11-20T15:46:32;2.90;99.90
42031;DHT22;27709;52.036;5.906;2022-11-20T15:49:03;2.90;99.90
42031;DHT22;27709;52.036;5.906;2022-11-20T15:51:31;2.90;99.90
42031;DHT22;27709;52.036;5.906;2022-11-20T15:53:58;2.90;99.90
42031;DHT22;27709;52.036;5.906;2022-11-20T15:56:24;2.90;99.90
42031;DHT22;27709;52.036;5.906;2022-11-20T15:58:50;2.90;99.90
42031;DHT22;27709;52.036;5.906;2022-11-20T16:01:17;3.00;99.90
42031;DHT22;27709;52.036;5.906;2022-11-20T16:03:43;3.00;99.90
42031;DHT22;27709;52.036;5.906;2022-11-20T16:06:09;3.00;99.90
42031;DHT22;27709;52.036;5.906;2022-11-20T16:08:34;3.00;99.90
42031;DHT22;27709;52.036;5.906;2022-11-20T16:11:00;3.00;99.90
42031;DHT22;27709;52.036;5.906;2022-11-20T16:13:26;3.00;99.90
42031;DHT22;27709;52.036;5.906;2022-11-20T16:16:34;3.00;99.90
42031;DHT22;27709;52.036;5.906;2022-11-20T16:19:00;3.00;99.90
42031;DHT22;27709;52.036;5.906;2022-11-20T16:21:26;3.00;99.90
42031;DHT22;27709;52.036;5.906;2022-11-20T16:23:57;2.90;99.90
42031;DHT22;27709;52.036;5.906;2022-11-20T16:26:23;2.90;99.90
42031;DHT22;27709;52.036;5.906;2022-11-20T16:28:49;2.90;99.90
42031;DHT22;27709;52.036;5.906;2022-11-20T16:31:16;2.90;99.90
42031;DHT22;27709;52.036;5.906;2022-11-20T16:33:42;2.90;99.90
42031;DHT22;27709;52.036;5.906;2022-11-20T16:36:13;2.90;99.90
42031;DHT22;27709;52.036;5.906;2022-11-20T16:38:39;2.80;99.90
42031;DHT22;27709;52.036;5.906;2022-11-20T16:41:05;2.80;99.90
42031;DHT22;27709;52.036;5.906;2022-11-20T16:43:31;2.80;99.90
42031;DHT22;27709;52.036;5.906;2022-11-20T16:45:57;2.80;99.90
42031;DHT22;27709;52.036;5.906;2022-11-20T16:48:22;2.80;99.90
42031;DHT22;27709;52.036;5.906;2022-11-20T16:50:50;2.80;99.90
42031;DHT22;27709;52.036;5.906;2022-11-20T16:53:17;2.80;99.90
42031;DHT22;27709;52.036;5.906;2022-11-20T16:55:43;2.80;99.90
42031;DHT22;27709;52.036;5.906;2022-11-20T16:58:09;2.80;99.90
42031;DHT22;27709;52.036;5.906;2022-11-20T17:00:39;2.80;99.90
42031;DHT22;27709;52.036;5.906;2022-11-20T17:03:05;2.80;99.90
42031;DHT22;27709;52.036;5.906;2022-11-20T17:05:31;2.80;99.90
42031;DHT22;27709;52.036;5.906;2022-11-20T17:07:56;2.80;99.90
42031;DHT22;27709;52.036;5.906;2022-11-20T17:10:22;2.80;99.90
42031;DHT22;27709;52.036;5.906;2022-11-20T17:12:47;2.80;99.90
42031;DHT22;27709;52.036;5.906;2022-11-20T17:15:13;2.80;99.90
42031;DHT22;27709;52.036;5.906;2022-11-20T17:17:39;2.80;99.90
42031;DHT22;27709;52.036;5.906;2022-11-20T17:20:05;2.80;99.90